createdAt,value
2022-11-19T00:01:28.573Z,5.83
2022-11-19T00:03:58.937Z,5.70
2022-11-19T00:06:27.713Z,5.53
2022-11-19T00:08:55.477Z,5.63
2022-11-19T00:11:44.116Z,5.67
2022-11-19T00:14:13.820Z,6.33
2022-11-19T00:16:41.825Z,7.20
2022-11-19T00:19:11.163Z,5.87
2022-11-19T00:21:38.091Z,6.57
2022-11-19T00:24:05.900Z,5.70
2022-11-19T00:26:32.750Z,6.00
2022-11-19T00:29:00.020Z,6.77
2022-11-19T00:31:27.008Z,6.70
2022-11-19T00:33:54.942Z,6.53
2022-11-19T00:36:22.644Z,6.20
2022-11-19T00:38:49.623Z,6.97
2022-11-19T00:41:16.581Z,6.90
2022-11-19T00:43:49.942Z,6.93
2022-11-19T00:46:23.096Z,6.70
2022-11-19T00:48:52.308Z,5.83
2022-11-19T00:51:21.497Z,6.30
2022-11-19T00:53:48.476Z,7.03
2022-11-19T00:56:19.155Z,6.70
2022-11-19T00:58:47.014Z,6.93
2022-11-19T01:01:16.344Z,7.07
2022-11-19T01:03:45.667Z,6.40
2022-11-19T01:06:18.817Z,6.80
2022-11-19T01:08:47.923Z,7.27
2022-11-19T01:11:20.436Z,7.63
2022-11-19T01:13:48.115Z,6.80
2022-11-19T01:16:27.937Z,6.97
2022-11-19T01:18:55.566Z,7.23
2022-11-19T01:21:29.468Z,6.97
2022-11-19T01:23:57.545Z,6.70
2022-11-19T01:26:25.435Z,7.07
2022-11-19T01:28:52.914Z,6.07
2022-11-19T01:31:26.793Z,5.97
2022-11-19T01:33:54.650Z,5.70
2022-11-19T01:36:26.469Z,7.00
2022-11-19T01:38:54.797Z,6.10
2022-11-19T01:41:29.022Z,6.30
2022-11-19T01:43:59.414Z,6.43
2022-11-19T01:46:33.358Z,7.20
2022-11-19T01:49:20.869Z,6.80
2022-11-19T01:52:00.848Z,5.83
2022-11-19T01:54:39.611Z,6.53
2022-11-19T01:57:11.359Z,6.37
2022-11-19T01:59:39.407Z,5.87
2022-11-19T02:02:06.396Z,6.13
2022-11-19T02:04:35.383Z,5.47
2022-11-19T02:07:02.949Z,6.23
2022-11-19T02:09:30.560Z,7.03
2022-11-19T02:12:06.179Z,7.40
2022-11-19T02:14:57.208Z,6.97
2022-11-19T02:17:53.383Z,6.30
2022-11-19T02:20:50.565Z,6.80
2022-11-19T02:23:23.156Z,6.57
2022-11-19T02:26:10.959Z,5.83
2022-11-19T02:29:14.566Z,6.37
2022-11-19T02:31:56.696Z,6.40
2022-11-19T02:34:47.838Z,6.87
2022-11-19T02:37:28.094Z,6.00
2022-11-19T02:40:23.745Z,5.87
2022-11-19T02:43:11.734Z,5.90
2022-11-19T02:45:56.312Z,6.50
2022-11-19T02:48:29.105Z,5.63
2022-11-19T02:51:01.333Z,6.27
2022-11-19T02:53:28.348Z,6.77
2022-11-19T02:56:13.988Z,6.80
2022-11-19T02:59:10.329Z,6.20
2022-11-19T03:02:01.159Z,5.30
2022-11-19T03:04:32.568Z,5.73
2022-11-19T03:07:17.644Z,6.53
2022-11-19T03:09:56.453Z,6.87
2022-11-19T03:12:36.409Z,5.97
2022-11-19T03:15:49.735Z,6.13
2022-11-19T03:18:41.447Z,5.93
2022-11-19T03:21:25.641Z,6.57
2022-11-19T03:24:21.069Z,5.80
2022-11-19T03:27:15.753Z,6.13
2022-11-19T03:29:49.174Z,5.50
2022-11-19T03:32:26.501Z,5.70
2022-11-19T03:35:00.138Z,5.30
2022-11-19T03:37:31.385Z,5.27
2022-11-19T03:40:00.887Z,5.80
2022-11-19T03:42:28.401Z,5.40
2022-11-19T03:45:04.023Z,5.50
2022-11-19T03:47:35.820Z,5.87
2022-11-19T03:50:45.716Z,5.77
2022-11-19T03:53:12.963Z,6.00
2022-11-19T03:55:55.189Z,5.20
2022-11-19T03:58:26.093Z,4.70
2022-11-19T04:00:54.006Z,5.17
2022-11-19T04:03:21.030Z,5.53
2022-11-19T04:05:48.429Z,5.17
2022-11-19T04:08:15.345Z,5.17
2022-11-19T04:10:42.725Z,6.17
2022-11-19T04:13:09.704Z,6.00
2022-11-19T04:15:36.652Z,6.23
2022-11-19T04:18:03.741Z,6.60
2022-11-19T04:20:30.676Z,6.50
2022-11-19T04:22:57.556Z,7.07
2022-11-19T04:25:24.481Z,6.03
2022-11-19T04:27:51.752Z,6.63
2022-11-19T04:30:19.444Z,6.83
2022-11-19T04:32:46.799Z,6.53
2022-11-19T04:35:14.204Z,6.50
2022-11-19T04:37:41.153Z,6.13
2022-11-19T04:40:08.933Z,6.63
2022-11-19T04:42:35.797Z,6.70
2022-11-19T04:45:02.682Z,6.80
2022-11-19T04:47:29.625Z,6.10
2022-11-19T04:49:56.463Z,6.77
2022-11-19T04:52:23.768Z,7.30
2022-11-19T04:54:50.641Z,6.30
2022-11-19T04:57:17.467Z,5.50
2022-11-19T04:59:44.581Z,7.03
2022-11-19T05:02:11.644Z,6.67
2022-11-19T05:04:38.518Z,14.37
2022-11-19T05:07:05.438Z,9.13
2022-11-19T05:09:32.413Z,6.87
2022-11-19T05:11:59.276Z,6.70
2022-11-19T05:14:30.310Z,7.47
2022-11-19T05:16:57.622Z,13.47
2022-11-19T05:19:24.521Z,11.20
2022-11-19T05:21:52.011Z,9.10
2022-11-19T05:24:19.041Z,11.60
2022-11-19T05:26:46.312Z,8.00
2022-11-19T05:29:13.206Z,7.43
2022-11-19T05:31:40.120Z,6.23
2022-11-19T05:34:07.070Z,7.30
2022-11-19T05:36:33.918Z,6.73
2022-11-19T05:39:00.785Z,6.07
2022-11-19T05:41:27.702Z,7.13
2022-11-19T05:43:55.744Z,7.10
2022-11-19T05:46:22.685Z,6.77
2022-11-19T05:48:49.562Z,6.77
2022-11-19T05:51:17.104Z,7.10
2022-11-19T05:53:44.541Z,6.73
2022-11-19T05:56:11.531Z,5.00
2022-11-19T05:58:38.420Z,6.07
2022-11-19T06:01:05.438Z,6.30
2022-11-19T06:03:32.758Z,6.10
2022-11-19T06:05:59.719Z,8.20
2022-11-19T06:08:26.937Z,5.90
2022-11-19T06:10:53.936Z,5.93
2022-11-19T06:13:21.352Z,6.07
2022-11-19T06:15:48.348Z,6.17
2022-11-19T06:18:15.351Z,6.40
2022-11-19T06:20:42.268Z,6.40
2022-11-19T06:23:09.149Z,6.80
2022-11-19T06:25:36.066Z,5.27
2022-11-19T06:28:03.002Z,7.00
2022-11-19T06:30:29.995Z,6.60
2022-11-19T06:32:56.880Z,6.50
2022-11-19T06:35:23.845Z,6.63
2022-11-19T06:37:50.862Z,8.10
2022-11-19T06:40:17.787Z,7.60
2022-11-19T06:42:49.831Z,7.57
2022-11-19T06:45:17.836Z,8.30
2022-11-19T06:47:48.673Z,8.83
2022-11-19T06:50:15.556Z,9.80
2022-11-19T06:52:42.553Z,8.30
2022-11-19T06:55:09.965Z,9.63
2022-11-19T06:57:36.904Z,8.60
2022-11-19T07:00:04.862Z,8.77
2022-11-19T07:02:31.816Z,9.10
2022-11-19T07:04:58.703Z,8.43
2022-11-19T07:07:25.592Z,8.67
2022-11-19T07:09:52.488Z,9.13
2022-11-19T07:12:19.381Z,7.60
2022-11-19T07:14:46.271Z,8.80
2022-11-19T07:17:13.225Z,8.87
2022-11-19T07:19:40.292Z,8.57
2022-11-19T07:22:07.269Z,9.60
2022-11-19T07:24:34.267Z,8.50
2022-11-19T07:27:01.222Z,11.17
2022-11-19T07:29:28.259Z,9.17
2022-11-19T07:31:55.469Z,7.37
2022-11-19T07:34:22.397Z,6.40
2022-11-19T07:36:50.091Z,6.00
2022-11-19T07:39:18.288Z,12.10
2022-11-19T07:42:03.721Z,9.30
2022-11-19T07:44:30.764Z,11.37
2022-11-19T07:46:57.951Z,6.83
2022-11-19T07:49:26.140Z,12.60
2022-11-19T07:51:54.305Z,9.30
2022-11-19T07:54:21.424Z,6.20
2022-11-19T07:56:48.361Z,6.47
2022-11-19T07:59:15.368Z,5.83
2022-11-19T08:01:42.824Z,6.80
2022-11-19T08:04:10.134Z,6.67
2022-11-19T08:06:37.542Z,7.43
2022-11-19T08:09:05.844Z,7.30
2022-11-19T08:11:32.787Z,7.40
2022-11-19T08:14:01.836Z,7.20
2022-11-19T08:16:47.414Z,9.90
2022-11-19T08:19:16.304Z,7.93
2022-11-19T08:21:45.812Z,7.23
2022-11-19T08:24:14.302Z,7.53
2022-11-19T08:26:42.066Z,7.90
2022-11-19T08:29:14.835Z,7.13
2022-11-19T08:31:45.948Z,7.57
2022-11-19T08:34:13.262Z,8.30
2022-11-19T08:36:40.371Z,9.00
2022-11-19T08:39:07.462Z,12.27
2022-11-19T08:41:52.774Z,12.70
2022-11-19T08:44:19.997Z,6.07
2022-11-19T08:46:47.178Z,6.30
2022-11-19T08:49:14.524Z,7.00
2022-11-19T08:51:41.768Z,13.43
2022-11-19T08:54:08.816Z,14.40
2022-11-19T08:56:35.786Z,18.90
2022-11-19T08:59:03.579Z,11.87
2022-11-19T09:01:31.209Z,8.20
2022-11-19T09:03:58.407Z,7.10
2022-11-19T09:06:25.480Z,6.97
2022-11-19T09:08:52.441Z,7.20
2022-11-19T09:11:22.233Z,6.83
2022-11-19T09:13:50.472Z,6.80
2022-11-19T09:16:17.721Z,8.27
2022-11-19T09:18:44.666Z,7.43
2022-11-19T09:21:12.367Z,7.10
2022-11-19T09:23:41.509Z,7.80
2022-11-19T09:26:15.648Z,8.30
2022-11-19T09:28:43.772Z,7.17
2022-11-19T09:31:16.661Z,7.80
2022-11-19T09:33:50.141Z,7.77
2022-11-19T09:36:18.616Z,6.03
2022-11-19T09:38:46.747Z,7.57
2022-11-19T09:41:34.479Z,7.30
2022-11-19T09:44:36.539Z,7.80
2022-11-19T09:47:33.809Z,6.90
2022-11-19T09:50:24.031Z,7.33
2022-11-19T09:52:58.577Z,6.80
2022-11-19T09:55:38.305Z,7.23
2022-11-19T09:58:13.977Z,7.07
2022-11-19T10:00:43.428Z,7.17
2022-11-19T10:03:21.478Z,8.20
2022-11-19T10:06:45.634Z,8.73
2022-11-19T10:09:57.985Z,7.97
2022-11-19T10:13:12.753Z,7.53
2022-11-19T10:16:10.907Z,24.37
2022-11-19T10:18:49.563Z,9.90
2022-11-19T10:21:34.333Z,8.40
2022-11-19T10:24:12.171Z,8.10
2022-11-19T10:26:41.414Z,7.70
2022-11-19T10:29:25.871Z,8.57
2022-11-19T10:31:52.891Z,8.33
2022-11-19T10:34:28.224Z,8.50
2022-11-19T10:37:03.076Z,8.57
2022-11-19T10:39:40.313Z,11.90
2022-11-19T10:42:34.180Z,9.10
2022-11-19T10:45:16.168Z,8.63
2022-11-19T10:48:09.749Z,8.23
2022-11-19T10:50:36.932Z,8.07
2022-11-19T10:53:24.237Z,8.40
2022-11-19T10:55:55.697Z,7.17
2022-11-19T10:58:30.479Z,36.37
2022-11-19T11:01:00.066Z,33.17
2022-11-19T11:03:46.996Z,12.20
2022-11-19T11:06:13.988Z,7.77
2022-11-19T11:08:54.666Z,7.37
2022-11-19T11:11:50.086Z,8.80
2022-11-19T11:14:38.904Z,7.57
2022-11-19T11:17:25.647Z,7.30
2022-11-19T11:20:08.056Z,8.13
2022-11-19T11:22:36.314Z,8.17
2022-11-19T11:25:07.332Z,8.33
2022-11-19T11:27:35.677Z,8.60
2022-11-19T11:30:12.673Z,9.00
2022-11-19T11:32:41.021Z,9.03
2022-11-19T11:35:31.768Z,8.30
2022-11-19T11:38:01.469Z,9.23
2022-11-19T11:40:29.826Z,10.87
2022-11-19T11:42:57.216Z,10.27
2022-11-19T11:45:36.329Z,8.63
2022-11-19T11:48:17.885Z,13.03
2022-11-19T11:50:47.960Z,21.87
2022-11-19T11:53:19.557Z,9.87
2022-11-19T11:55:57.355Z,7.33
2022-11-19T11:58:31.329Z,7.20
2022-11-19T12:01:15.978Z,7.60
2022-11-19T12:03:55.689Z,7.30
2022-11-19T12:06:34.844Z,7.93
2022-11-19T12:09:23.628Z,18.53
2022-11-19T12:12:01.929Z,10.23
2022-11-19T12:14:42.949Z,8.20
2022-11-19T12:17:33.958Z,7.40
2022-11-19T12:20:53.815Z,7.67
2022-11-19T12:24:02.816Z,7.43
2022-11-19T12:26:54.999Z,6.53
2022-11-19T12:29:51.593Z,7.23
2022-11-19T12:32:36.809Z,6.93
2022-11-19T12:35:47.223Z,8.40
2022-11-19T12:38:36.530Z,8.50
2022-11-19T12:41:25.770Z,7.27
2022-11-19T12:44:03.688Z,19.07
2022-11-19T12:46:52.853Z,16.23
2022-11-19T12:49:46.815Z,20.47
2022-11-19T12:53:02.811Z,11.37
2022-11-19T12:55:38.393Z,8.50
2022-11-19T12:58:33.339Z,8.10
2022-11-19T13:01:06.583Z,8.50
2022-11-19T13:03:58.525Z,9.20
2022-11-19T13:06:42.792Z,10.50
2022-11-19T13:09:21.390Z,9.90
2022-11-19T13:11:59.481Z,9.10
2022-11-19T13:14:42.849Z,9.03
2022-11-19T13:17:26.164Z,8.77
2022-11-19T13:19:59.753Z,8.83
2022-11-19T13:22:33.115Z,9.90
2022-11-19T13:25:25.393Z,8.67
2022-11-19T13:27:55.463Z,8.17
2022-11-19T13:30:26.903Z,8.70
2022-11-19T13:33:19.790Z,7.83
2022-11-19T13:36:10.327Z,9.33
2022-11-19T13:38:45.026Z,8.93
2022-11-19T13:41:25.648Z,8.70
2022-11-19T13:44:14.963Z,8.70
2022-11-19T13:46:58.679Z,8.37
2022-11-19T13:49:40.224Z,8.90
2022-11-19T13:52:34.075Z,10.30
2022-11-19T13:55:01.650Z,9.13
2022-11-19T13:57:35.083Z,9.33
2022-11-19T14:00:21.839Z,9.40
2022-11-19T14:03:13.517Z,8.80
2022-11-19T14:06:08.330Z,9.00
2022-11-19T14:08:48.346Z,8.87
2022-11-19T14:11:51.932Z,8.83
2022-11-19T14:15:11.830Z,8.20
2022-11-19T14:18:04.684Z,8.73
2022-11-19T14:20:54.496Z,7.63
2022-11-19T14:24:01.650Z,10.27
2022-11-19T14:26:40.917Z,8.50
2022-11-19T14:29:27.672Z,9.70
2022-11-19T14:32:00.592Z,8.47
2022-11-19T14:34:39.911Z,9.37
2022-11-19T14:37:19.329Z,9.10
2022-11-19T14:39:54.908Z,9.73
2022-11-19T14:42:23.363Z,7.90
2022-11-19T14:45:05.090Z,8.70
2022-11-19T14:47:37.539Z,8.70
2022-11-19T14:50:08.680Z,9.13
2022-11-19T14:52:51.440Z,9.73
2022-11-19T14:55:27.608Z,8.80
2022-11-19T14:58:03.385Z,8.57
2022-11-19T15:00:34.226Z,9.67
2022-11-19T15:03:05.283Z,8.60
2022-11-19T15:05:36.034Z,9.90
2022-11-19T15:08:18.139Z,8.03
2022-11-19T15:11:14.078Z,8.47
2022-11-19T15:13:44.383Z,9.80
2022-11-19T15:16:21.343Z,9.00
2022-11-19T15:19:25.626Z,9.10
2022-11-19T15:22:21.859Z,8.93
2022-11-19T15:25:18.886Z,8.80
2022-11-19T15:28:05.723Z,13.70
2022-11-19T15:31:15.186Z,12.80
2022-11-19T15:34:10.145Z,13.87
2022-11-19T15:36:40.545Z,23.60
2022-11-19T15:39:43.068Z,14.83
2022-11-19T15:42:19.547Z,9.97
2022-11-19T15:45:05.792Z,11.60
2022-11-19T15:47:48.317Z,49.53
2022-11-19T15:50:19.322Z,15.17
2022-11-19T15:53:14.569Z,10.07
2022-11-19T15:55:58.094Z,9.87
2022-11-19T15:58:33.742Z,10.63
2022-11-19T16:01:00.844Z,10.23
2022-11-19T16:03:27.816Z,11.33
2022-11-19T16:06:23.553Z,10.00
2022-11-19T16:08:56.478Z,10.00
2022-11-19T16:11:46.340Z,11.10
2022-11-19T16:14:46.903Z,10.03
2022-11-19T16:17:46.925Z,10.00
2022-11-19T16:20:13.694Z,11.50
2022-11-19T16:23:06.929Z,9.83
2022-11-19T16:25:41.509Z,11.53
2022-11-19T16:28:17.483Z,11.00
2022-11-19T16:31:00.044Z,10.10
2022-11-19T16:33:29.424Z,11.97
2022-11-19T16:36:17.401Z,11.37
2022-11-19T16:38:48.665Z,10.27
2022-11-19T16:41:41.440Z,10.93
2022-11-19T16:44:19.243Z,11.17
2022-11-19T16:46:46.891Z,13.40
2022-11-19T16:49:32.090Z,11.30
2022-11-19T16:51:59.825Z,11.50
2022-11-19T16:54:47.435Z,11.60
2022-11-19T16:57:19.262Z,11.50
2022-11-19T16:59:53.709Z,11.30
2022-11-19T17:02:25.521Z,10.30
2022-11-19T17:04:56.033Z,11.33
2022-11-19T17:07:29.803Z,12.07
2022-11-19T17:10:18.714Z,10.83
2022-11-19T17:12:52.950Z,10.70
2022-11-19T17:15:47.210Z,10.73
2022-11-19T17:18:16.964Z,11.73
2022-11-19T17:20:43.967Z,11.80
2022-11-19T17:23:32.139Z,12.50
2022-11-19T17:26:02.638Z,10.20
2022-11-19T17:28:49.184Z,11.60
2022-11-19T17:31:28.871Z,10.30
2022-11-19T17:34:04.876Z,11.57
2022-11-19T17:36:31.750Z,11.50
2022-11-19T17:38:58.824Z,45.10
2022-11-19T17:41:47.406Z,40.97
2022-11-19T17:44:39.089Z,19.60
2022-11-19T17:47:22.183Z,11.93
2022-11-19T17:49:50.569Z,11.50
2022-11-19T17:52:30.212Z,11.70
2022-11-19T17:55:23.589Z,12.10
2022-11-19T17:57:50.630Z,12.50
2022-11-19T18:00:17.624Z,12.27
2022-11-19T18:02:44.675Z,12.50
2022-11-19T18:05:20.110Z,16.83
2022-11-19T18:07:47.119Z,11.67
2022-11-19T18:10:14.082Z,11.47
2022-11-19T18:12:40.969Z,10.97
2022-11-19T18:15:13.107Z,12.53
2022-11-19T18:17:40.011Z,13.00
2022-11-19T18:20:08.367Z,12.60
2022-11-19T18:22:36.093Z,11.50
2022-11-19T18:25:07.146Z,12.13
2022-11-19T18:27:33.977Z,11.73
2022-11-19T18:30:00.868Z,11.57
2022-11-19T18:32:28.141Z,12.17
2022-11-19T18:34:58.016Z,12.00
2022-11-19T18:37:28.916Z,11.77
2022-11-19T18:39:55.959Z,10.70
2022-11-19T18:42:28.750Z,11.47
2022-11-19T18:44:55.791Z,11.63
2022-11-19T18:47:24.473Z,12.23
2022-11-19T18:49:51.433Z,12.27
2022-11-19T18:52:18.468Z,11.90
2022-11-19T18:54:45.765Z,11.60
2022-11-19T18:57:13.011Z,11.73
2022-11-19T18:59:40.022Z,11.33
2022-11-19T19:02:07.284Z,10.73
2022-11-19T19:04:34.377Z,11.10
2022-11-19T19:07:01.311Z,11.60
2022-11-19T19:09:28.214Z,12.80
2022-11-19T19:12:14.217Z,12.20
2022-11-19T19:14:43.440Z,11.40
2022-11-19T19:17:12.257Z,12.50
2022-11-19T19:19:39.649Z,14.10
2022-11-19T19:22:07.713Z,15.30
2022-11-19T19:24:34.661Z,13.53
2022-11-19T19:27:02.594Z,12.23
2022-11-19T19:29:29.442Z,12.67
2022-11-19T19:31:57.107Z,13.50
2022-11-19T19:34:24.558Z,13.10
2022-11-19T19:36:53.362Z,13.17
2022-11-19T19:39:21.237Z,12.90
2022-11-19T19:41:49.190Z,13.87
2022-11-19T19:44:16.380Z,13.33
2022-11-19T19:46:43.321Z,13.20
2022-11-19T19:49:10.213Z,11.80
2022-11-19T19:51:37.144Z,11.87
2022-11-19T19:54:04.165Z,12.00
2022-11-19T19:56:32.980Z,13.70
2022-11-19T19:59:01.358Z,12.70
2022-11-19T20:01:35.370Z,12.87
2022-11-19T20:04:11.036Z,13.27
2022-11-19T20:06:42.239Z,14.67
2022-11-19T20:09:09.782Z,12.30
2022-11-19T20:11:37.509Z,12.47
2022-11-19T20:14:05.354Z,11.70
2022-11-19T20:16:33.969Z,13.23
2022-11-19T20:19:02.232Z,12.90
2022-11-19T20:21:33.957Z,13.37
2022-11-19T20:24:02.480Z,13.60
2022-11-19T20:26:31.876Z,14.00
2022-11-19T20:29:01.644Z,11.93
2022-11-19T20:31:30.325Z,11.93
2022-11-19T20:34:00.212Z,11.20
2022-11-19T20:36:30.547Z,12.20
2022-11-19T20:38:57.706Z,12.90
2022-11-19T20:42:04.105Z,13.73
2022-11-19T20:44:31.480Z,12.30
2022-11-19T20:47:03.712Z,12.43
2022-11-19T20:49:36.613Z,13.13
2022-11-19T20:52:03.933Z,12.30
2022-11-19T20:54:30.867Z,13.23
2022-11-19T20:56:58.530Z,23.60
2022-11-19T20:59:26.603Z,22.77
2022-11-19T21:01:55.642Z,14.43
2022-11-19T21:04:24.815Z,12.77
2022-11-19T21:06:51.841Z,12.83
2022-11-19T21:09:19.804Z,13.00
2022-11-19T21:11:47.845Z,12.30
2022-11-19T21:14:14.772Z,11.73
2022-11-19T21:16:41.678Z,13.70
2022-11-19T21:19:10.407Z,13.17
2022-11-19T21:21:38.160Z,12.57
2022-11-19T21:24:05.826Z,13.43
2022-11-19T21:26:33.091Z,16.00
2022-11-19T21:29:00.854Z,13.10
2022-11-19T21:31:41.603Z,12.10
2022-11-19T21:34:14.562Z,13.10
2022-11-19T21:36:43.295Z,12.60
2022-11-19T21:39:11.558Z,12.97
2022-11-19T21:41:38.797Z,11.93
2022-11-19T21:44:06.339Z,14.67
2022-11-19T21:46:33.928Z,11.47
2022-11-19T21:49:01.511Z,13.47
2022-11-19T21:51:28.571Z,13.73
2022-11-19T21:53:59.189Z,13.10
2022-11-19T21:56:27.425Z,12.43
2022-11-19T21:58:54.415Z,13.73
2022-11-19T22:01:21.528Z,13.30
2022-11-19T22:03:48.844Z,14.33
2022-11-19T22:06:15.845Z,13.23
2022-11-19T22:08:43.316Z,11.97
2022-11-19T22:11:30.416Z,12.40
2022-11-19T22:14:05.457Z,13.70
2022-11-19T22:16:36.543Z,14.00
2022-11-19T22:19:05.560Z,11.60
2022-11-19T22:21:33.047Z,12.93
2022-11-19T22:24:00.435Z,12.60
2022-11-19T22:26:28.128Z,13.50
2022-11-19T22:28:55.685Z,12.33
2022-11-19T22:31:23.795Z,13.70
2022-11-19T22:33:52.092Z,12.10
2022-11-19T22:36:20.336Z,12.00
2022-11-19T22:38:47.223Z,12.30
2022-11-19T22:41:18.069Z,12.47
2022-11-19T22:43:45.509Z,12.67
2022-11-19T22:46:14.488Z,12.43
2022-11-19T22:48:41.807Z,13.30
2022-11-19T22:51:23.789Z,14.13
2022-11-19T22:53:52.824Z,13.30
2022-11-19T22:56:27.134Z,13.00
2022-11-19T22:58:54.654Z,13.43
2022-11-19T23:01:31.591Z,12.90
2022-11-19T23:04:01.887Z,13.83
2022-11-19T23:06:29.152Z,14.60
2022-11-19T23:08:57.318Z,13.37
2022-11-19T23:11:43.102Z,13.90
2022-11-19T23:14:14.288Z,14.73
2022-11-19T23:16:42.126Z,13.73
2022-11-19T23:19:11.740Z,15.10
2022-11-19T23:21:40.069Z,12.70
2022-11-19T23:24:09.868Z,12.20
2022-11-19T23:26:38.057Z,13.00
2022-11-19T23:29:06.403Z,13.10
2022-11-19T23:31:37.878Z,13.50
2022-11-19T23:34:05.497Z,12.40
2022-11-19T23:36:35.689Z,13.97
2022-11-19T23:39:03.674Z,14.90
2022-11-19T23:41:33.577Z,12.63
2022-11-19T23:44:01.085Z,13.67
2022-11-19T23:46:34.868Z,14.17
2022-11-19T23:49:04.060Z,14.00
2022-11-19T23:51:35.727Z,15.00
2022-11-19T23:54:03.791Z,15.33
2022-11-19T23:56:33.018Z,13.73
2022-11-19T23:59:03.612Z,14.53
